Time;durP1;ratioP1;P1;durP2;ratioP2;P2;SDS_P1;SDS_P2;PMS_P1;PMS_P2;Temp;Humidity;BMP_temperature;BMP_pressure;BME280_temperature;BME280_humidity;BME280_pressure;Samples;Min_cycle;Max_cycle;Signal;HPM_P1;HPM_P2
2023/06/26 00:01:20;;;;;;;21.58;11.90;;;;;;;21.77;75.73;101083.91;5086196;28;20032;-78
2023/06/26 00:03:46;;;;;;;20.88;12.18;;;;;;;21.77;75.82;101076.59;5083002;28;20071;-77
2023/06/26 00:06:11;;;;;;;20.40;11.68;;;;;;;21.79;74.99;101079.13;5068929;28;20028;-77
2023/06/26 00:08:36;;;;;;;20.25;10.98;;;;;;;21.80;75.41;101072.59;5067214;28;20023;-77
2023/06/26 00:11:01;;;;;;;20.52;11.05;;;;;;;21.82;74.77;101076.88;5066874;28;20024;-77
2023/06/26 00:13:27;;;;;;;20.05;11.07;;;;;;;21.82;75.41;101073.31;5079200;28;20025;-77
2023/06/26 00:15:52;;;;;;;23.38;11.45;;;;;;;21.81;74.70;101066.97;5088047;28;20042;-77
2023/06/26 00:18:18;;;;;;;22.00;11.13;;;;;;;21.79;76.14;101068.19;5087464;28;20236;-77
2023/06/26 00:20:43;;;;;;;20.40;10.52;;;;;;;21.76;75.46;101069.41;5083261;28;20579;-77
2023/06/26 00:23:08;;;;;;;21.52;11.07;;;;;;;21.72;76.76;101072.69;5087872;28;20032;-77
2023/06/26 00:25:34;;;;;;;22.40;10.95;;;;;;;21.69;75.24;101073.88;5084759;28;20028;-77
2023/06/26 00:27:59;;;;;;;20.77;10.35;;;;;;;21.67;76.06;101072.34;5083501;28;20025;-77
2023/06/26 00:30:25;;;;;;;21.05;10.93;;;;;;;21.66;76.71;101073.41;5078748;28;20058;-77
2023/06/26 00:32:51;;;;;;;21.42;10.93;;;;;;;21.63;76.60;101071.88;5069433;28;20059;-77
2023/06/26 00:35:16;;;;;;;21.83;10.75;;;;;;;21.60;76.17;101070.34;5088934;28;20026;-77
2023/06/26 00:37:41;;;;;;;21.42;12.15;;;;;;;21.58;76.64;101064.22;5087001;28;20049;-77
2023/06/26 00:40:07;;;;;;;20.50;11.43;;;;;;;21.55;77.74;101075.50;5063831;28;20036;-77
2023/06/26 00:42:33;;;;;;;22.20;11.55;;;;;;;21.48;77.99;101069.03;5091554;28;20612;-77
2023/06/26 00:44:58;;;;;;;25.02;11.98;;;;;;;21.47;77.31;101067.31;5090680;28;20107;-77
2023/06/26 00:47:25;;;;;;;20.58;11.07;;;;;;;21.43;78.74;101079.63;5062970;28;20021;-77
2023/06/26 00:49:51;;;;;;;21.45;11.93;;;;;;;21.39;77.75;101070.94;5078635;28;20448;-77
2023/06/26 00:52:17;;;;;;;22.85;11.65;;;;;;;21.37;78.53;101080.34;5080335;28;20032;-77
2023/06/26 00:54:42;;;;;;;21.77;12.13;;;;;;;21.34;77.78;101069.78;5088306;28;20024;-77
2023/06/26 00:57:08;;;;;;;24.65;11.30;;;;;;;21.32;77.85;101071.81;5083180;28;20024;-77
2023/06/26 00:59:34;;;;;;;22.40;11.55;;;;;;;21.32;77.66;101080.03;5076244;28;20476;-77
2023/06/26 01:02:00;;;;;;;21.58;11.13;;;;;;;21.32;77.08;101088.22;5096923;28;20554;-77
2023/06/26 01:04:27;;;;;;;21.95;11.38;;;;;;;21.29;76.89;101082.09;5064783;28;20031;-77
2023/06/26 01:06:54;;;;;;;21.65;11.32;;;;;;;21.29;76.65;101082.09;5066404;28;20067;-78
2023/06/26 01:09:20;;;;;;;21.60;10.35;;;;;;;21.27;76.11;101086.91;5091855;28;20499;-77
2023/06/26 01:11:46;;;;;;;21.38;10.70;;;;;;;21.27;75.96;101095.09;5067194;28;20016;-77
2023/06/26 01:14:12;;;;;;;20.27;9.25;;;;;;;21.28;75.31;101090.47;5084740;28;20039;-77
2023/06/26 01:16:40;;;;;;;20.00;9.57;;;;;;;21.25;75.71;101093.56;5080264;28;20024;-77
2023/06/26 01:19:25;;;;;;;21.75;9.68;;;;;;;21.26;75.73;101092.50;5088679;28;20486;-77
2023/06/26 01:21:57;;;;;;;20.90;9.95;;;;;;;21.21;75.26;101093.06;5064525;28;20028;-76
2023/06/26 01:24:27;;;;;;;20.83;9.75;;;;;;;21.20;74.68;101096.84;5071418;28;20020;-77
2023/06/26 01:26:53;;;;;;;21.63;8.88;;;;;;;21.17;74.95;101093.59;5093520;28;20027;-77
2023/06/26 01:29:20;;;;;;;21.13;8.77;;;;;;;21.15;75.07;101099.22;5067510;28;20036;-77
2023/06/26 01:31:49;;;;;;;19.73;9.23;;;;;;;21.13;75.15;101106.75;5076983;28;20024;-77
2023/06/26 01:34:16;;;;;;;20.37;9.10;;;;;;;21.11;75.77;101111.53;5074971;28;20032;-77
2023/06/26 01:36:42;;;;;;;18.48;8.23;;;;;;;21.06;75.68;101106.59;5083448;28;20453;-77
2023/06/26 01:39:08;;;;;;;21.83;9.23;;;;;;;21.04;74.84;101103.19;5088838;28;20052;-77
2023/06/26 01:41:34;;;;;;;18.48;8.02;;;;;;;21.01;74.77;101103.56;5083914;28;20476;-77
2023/06/26 01:44:25;;;;;;;20.70;8.55;;;;;;;21.02;74.31;101112.59;5085357;28;20055;-77
2023/06/26 01:47:02;;;;;;;19.70;7.95;;;;;;;20.98;74.17;101114.81;5080892;28;20043;-77
2023/06/26 01:49:46;;;;;;;16.65;6.43;;;;;;;20.96;73.58;101122.34;5086338;28;20024;-77
2023/06/26 01:52:31;;;;;;;17.50;7.18;;;;;;;20.92;74.06;101131.91;5066674;28;20025;-77
2023/06/26 01:55:11;;;;;;;20.02;7.68;;;;;;;20.87;73.59;101128.88;5063790;28;20024;-77
2023/06/26 01:57:39;;;;;;;19.42;7.43;;;;;;;20.80;74.61;101128.69;5089425;28;20402;-77
2023/06/26 02:00:07;;;;;;;22.52;7.60;;;;;;;20.80;73.79;101139.63;5096509;28;20492;-77
2023/06/26 02:02:34;;;;;;;19.93;7.07;;;;;;;20.75;74.27;101131.94;5078650;28;20093;-77
2023/06/26 02:04:59;;;;;;;15.85;6.13;;;;;;;20.72;73.78;101136.91;5074827;28;20285;-77
2023/06/26 02:07:25;;;;;;;20.65;7.20;;;;;;;20.70;74.14;101141.66;5080832;28;20116;-77
2023/06/26 02:09:50;;;;;;;19.95;7.45;;;;;;;20.67;73.94;101134.66;5065176;28;20425;-77
2023/06/26 02:12:15;;;;;;;16.50;6.47;;;;;;;20.63;74.04;101129.69;5073254;28;20413;-77
2023/06/26 02:14:41;;;;;;;17.05;6.03;;;;;;;20.59;74.36;101129.19;5067442;28;20472;-77
2023/06/26 02:17:08;;;;;;;16.05;6.63;;;;;;;20.56;74.47;101135.00;5082388;28;20040;-77
2023/06/26 02:19:33;;;;;;;19.20;6.60;;;;;;;20.49;75.02;101132.09;5090559;28;20028;-77
2023/06/26 02:21:58;;;;;;;18.60;6.80;;;;;;;20.44;74.24;101134.50;5092337;28;20028;-77
2023/06/26 02:24:24;;;;;;;17.92;6.75;;;;;;;20.41;74.75;101129.34;5067364;28;20028;-77
2023/06/26 02:26:49;;;;;;;17.33;6.07;;;;;;;20.36;75.16;101126.28;5074412;28;20025;-77
2023/06/26 02:29:15;;;;;;;18.75;6.45;;;;;;;20.29;74.75;101131.56;5071539;28;20499;-78
2023/06/26 02:31:40;;;;;;;15.93;6.53;;;;;;;20.26;75.22;101137.38;5071983;28;20396;-77
2023/06/26 02:34:06;;;;;;;20.92;5.88;;;;;;;20.21;74.72;101140.63;5067949;28;20035;-77
2023/06/26 02:36:32;;;;;;;16.55;5.70;;;;;;;20.16;74.76;101140.28;5078081;28;20083;-77
2023/06/26 02:38:58;;;;;;;19.92;6.35;;;;;;;20.14;74.78;101147.75;5089705;28;20551;-77
2023/06/26 02:41:23;;;;;;;19.35;6.28;;;;;;;20.11;74.59;101147.25;5086026;28;20372;-77
2023/06/26 02:43:48;;;;;;;16.52;5.45;;;;;;;20.06;74.13;101147.78;5072839;28;20036;-77
2023/06/26 02:46:14;;;;;;;16.70;5.53;;;;;;;20.03;74.22;101150.81;5065114;28;20019;-77
2023/06/26 02:48:39;;;;;;;16.30;5.57;;;;;;;19.99;74.44;101146.72;5090384;28;20039;-77
2023/06/26 02:51:07;;;;;;;18.17;5.70;;;;;;;19.95;74.51;101156.25;5068786;28;20086;-77
2023/06/26 02:53:32;;;;;;;16.42;5.50;;;;;;;19.94;75.03;101171.75;5084638;28;20028;-77
2023/06/26 02:55:57;;;;;;;19.15;5.32;;;;;;;19.89;75.09;101165.97;5072668;28;20094;-77
2023/06/26 02:58:22;;;;;;;16.58;5.78;;;;;;;19.87;75.29;101173.47;5074506;28;20029;-76
2023/06/26 03:00:48;;;;;;;18.00;6.13;;;;;;;19.85;75.80;101170.03;5072833;28;20020;-77
2023/06/26 03:03:13;;;;;;;21.05;6.25;;;;;;;19.81;76.09;101177.72;5087987;28;20044;-77
2023/06/26 03:05:39;;;;;;;18.25;5.35;;;;;;;19.80;77.53;101183.34;5073234;28;20036;-77
2023/06/26 03:08:04;;;;;;;16.27;6.35;;;;;;;19.77;77.16;101179.03;5090434;28;20590;-77
2023/06/26 03:10:30;;;;;;;19.27;5.90;;;;;;;19.71;78.33;101183.25;5091669;28;20102;-77
2023/06/26 03:12:55;;;;;;;17.90;6.40;;;;;;;19.69;78.66;101173.53;5093672;28;20019;-77
2023/06/26 03:15:21;;;;;;;19.67;6.07;;;;;;;19.67;78.96;101179.16;5073552;28;20027;-77
2023/06/26 03:17:46;;;;;;;16.33;5.28;;;;;;;19.66;79.44;101176.59;5085077;28;20475;-77
2023/06/26 03:20:11;;;;;;;22.20;6.38;;;;;;;19.59;80.09;101179.13;5072531;28;20091;-77
2023/06/26 03:22:37;;;;;;;16.77;6.13;;;;;;;19.61;80.29;101181.69;5072340;28;20031;-77
2023/06/26 03:25:03;;;;;;;21.70;7.15;;;;;;;19.56;80.90;101176.69;5092119;28;20027;-77
2023/06/26 03:27:28;;;;;;;17.27;5.47;;;;;;;19.52;81.56;101178.06;5101090;28;20028;-77
2023/06/26 03:29:53;;;;;;;20.80;6.13;;;;;;;19.51;81.64;101176.34;5098535;28;20039;-77
2023/06/26 03:32:19;;;;;;;18.38;6.43;;;;;;;19.48;82.06;101176.69;5068793;28;20032;-77
2023/06/26 03:34:44;;;;;;;21.45;5.85;;;;;;;19.46;82.41;101182.31;5096250;28;20121;-77
2023/06/26 03:37:09;;;;;;;19.90;6.68;;;;;;;19.45;82.78;101171.56;5066281;28;20125;-78
2023/06/26 03:39:35;;;;;;;20.42;6.45;;;;;;;19.44;82.92;101180.75;5087044;28;20044;-77
2023/06/26 03:42:01;;;;;;;18.35;5.40;;;;;;;19.45;83.17;101180.59;5091257;28;20046;-77
2023/06/26 03:44:27;;;;;;;22.67;6.63;;;;;;;19.39;83.86;101183.97;5089132;28;20035;-78
2023/06/26 03:46:53;;;;;;;20.38;5.57;;;;;;;19.39;84.38;101183.97;5088820;28;20025;-77
2023/06/26 03:49:18;;;;;;;17.60;6.07;;;;;;;19.38;84.59;101188.53;5073421;28;20028;-77
2023/06/26 03:51:44;;;;;;;16.95;5.78;;;;;;;19.36;85.29;101189.75;5067878;28;20028;-77
2023/06/26 03:54:10;;;;;;;21.50;6.30;;;;;;;19.33;85.97;101195.53;5081870;28;20024;-77
2023/06/26 03:56:35;;;;;;;21.10;6.28;;;;;;;19.33;86.07;101195.53;5087020;28;20039;-76
2023/06/26 03:59:00;;;;;;;19.00;6.13;;;;;;;19.32;86.75;101193.81;5071124;28;20491;-78
2023/06/26 04:01:26;;;;;;;21.98;6.50;;;;;;;19.30;87.01;101196.69;5063884;28;20016;-77
2023/06/26 04:03:51;;;;;;;20.27;6.65;;;;;;;19.30;87.75;101198.56;5088738;28;20399;-77
2023/06/26 04:06:17;;;;;;;22.63;6.55;;;;;;;19.29;87.67;101210.47;5061590;28;20036;-77
2023/06/26 04:08:43;;;;;;;21.08;7.00;;;;;;;19.29;88.18;101207.75;5081641;28;20110;-77
2023/06/26 04:11:08;;;;;;;20.35;6.60;;;;;;;19.28;88.88;101211.47;5080665;28;20088;-77
2023/06/26 04:13:33;;;;;;;22.30;6.88;;;;;;;19.27;89.28;101218.81;5080216;28;20078;-77
2023/06/26 04:15:58;;;;;;;20.65;6.97;;;;;;;19.27;89.63;101223.38;5082798;28;20081;-77
2023/06/26 04:18:24;;;;;;;20.90;7.47;;;;;;;19.25;90.26;101223.56;5095783;28;20028;-77
2023/06/26 04:21:06;;;;;;;20.77;7.40;;;;;;;19.25;89.56;101225.44;5088977;28;20032;-77
2023/06/26 04:23:32;;;;;;;22.55;7.03;;;;;;;19.26;91.46;101227.16;5069129;28;20458;-77
2023/06/26 04:25:58;;;;;;;24.60;7.10;;;;;;;19.25;91.67;101225.44;5080195;28;20028;-77
2023/06/26 04:28:24;;;;;;;18.17;6.50;;;;;;;19.26;91.99;101224.44;5081812;28;20024;-77
2023/06/26 04:30:49;;;;;;;23.42;8.05;;;;;;;19.30;92.30;101223.94;5062707;28;20074;-77
2023/06/26 04:33:15;;;;;;;19.52;6.72;;;;;;;19.32;92.65;101230.06;5087326;28;20087;-77
2023/06/26 04:35:40;;;;;;;20.80;6.68;;;;;;;19.34;92.81;101232.63;5095270;28;20403;-77
2023/06/26 04:38:06;;;;;;;19.42;7.03;;;;;;;19.36;92.88;101236.06;5079938;28;20016;-77
2023/06/26 04:40:31;;;;;;;21.13;6.43;;;;;;;19.37;93.36;101237.75;5073979;28;20070;-76
2023/06/26 04:42:56;;;;;;;22.33;7.85;;;;;;;19.37;93.23;101238.63;5086881;28;20059;-77
2023/06/26 04:45:21;;;;;;;22.50;7.35;;;;;;;19.37;93.73;101237.75;5085001;28;20442;-77
2023/06/26 04:47:47;;;;;;;23.77;7.70;;;;;;;19.36;94.04;101244.25;5076885;28;20032;-77
2023/06/26 04:50:12;;;;;;;20.77;7.20;;;;;;;19.36;93.67;101252.44;5098490;28;20503;-77
2023/06/26 04:52:37;;;;;;;24.33;7.55;;;;;;;19.32;94.18;101243.69;5080592;28;20169;-77
2023/06/26 04:55:03;;;;;;;24.38;7.38;;;;;;;19.30;94.46;101261.25;5099561;28;20091;-77
2023/06/26 04:57:28;;;;;;;22.83;6.88;;;;;;;19.29;94.42;101262.25;5074621;28;20114;-76
2023/06/26 04:59:54;;;;;;;21.98;7.05;;;;;;;19.29;94.31;101259.53;5080049;28;20032;-77
2023/06/26 05:02:19;;;;;;;19.08;6.53;;;;;;;19.30;94.53;101261.25;5085402;28;20543;-77
2023/06/26 05:04:46;;;;;;;19.50;6.45;;;;;;;19.31;93.91;101252.91;5085280;28;20081;-77
2023/06/26 05:07:11;;;;;;;23.67;6.82;;;;;;;19.33;94.59;101260.94;5086046;28;20052;-77
2023/06/26 05:09:37;;;;;;;20.55;6.90;;;;;;;19.31;94.50;101266.53;5070958;28;20039;-77
2023/06/26 05:12:02;;;;;;;23.30;7.40;;;;;;;19.30;94.29;101266.69;5094679;28;20020;-77
2023/06/26 05:14:28;;;;;;;21.35;6.43;;;;;;;19.28;94.11;101263.25;5082865;28;20020;-77
2023/06/26 05:16:53;;;;;;;21.83;7.07;;;;;;;19.27;94.64;101269.72;5072523;28;20033;-77
2023/06/26 05:19:18;;;;;;;22.10;6.93;;;;;;;19.27;93.65;101277.91;5087439;28;20021;-77
2023/06/26 05:21:44;;;;;;;20.08;6.32;;;;;;;19.26;94.05;101282.50;5069470;28;20015;-77
2023/06/26 05:24:13;;;;;;;24.98;7.63;;;;;;;19.29;94.35;101279.44;5091826;28;20016;-77
2023/06/26 05:26:38;;;;;;;22.27;6.65;;;;;;;19.31;93.14;101279.28;5093348;28;20075;-77
2023/06/26 05:29:04;;;;;;;22.52;6.60;;;;;;;19.33;93.55;101290.91;5090626;28;20024;-77
2023/06/26 05:31:33;;;;;;;18.52;5.85;;;;;;;19.34;93.14;101285.28;5072999;28;20027;-77
2023/06/26 05:34:02;;;;;;;25.90;6.50;;;;;;;19.34;91.46;101292.59;5084777;28;20469;-77
2023/06/26 05:36:29;;;;;;;24.38;7.05;;;;;;;19.35;91.52;101297.03;5086791;28;20420;-76
2023/06/26 05:38:56;;;;;;;18.55;6.07;;;;;;;19.34;91.82;101300.78;5094043;28;20468;-77
2023/06/26 05:41:22;;;;;;;19.95;5.95;;;;;;;19.34;92.38;101306.22;5093652;28;20036;-77
2023/06/26 05:43:47;;;;;;;19.67;5.80;;;;;;;19.31;91.27;101298.38;5083036;28;20024;-77
2023/06/26 05:46:12;;;;;;;22.60;6.43;;;;;;;19.32;91.21;101300.94;5066650;28;20033;-77
2023/06/26 05:48:38;;;;;;;20.65;5.90;;;;;;;19.35;91.47;101308.78;5086084;28;20121;-77
2023/06/26 05:51:03;;;;;;;21.98;6.28;;;;;;;19.33;90.42;101315.44;5094407;28;20024;-77
2023/06/26 05:53:29;;;;;;;22.77;6.25;;;;;;;19.37;90.74;101322.25;5078820;28;20027;-77
2023/06/26 05:55:55;;;;;;;19.58;5.60;;;;;;;19.37;90.27;101320.41;5070088;28;20063;-77
2023/06/26 05:58:25;;;;;;;21.85;5.70;;;;;;;19.38;89.17;101318.53;5088726;28;20020;-77
2023/06/26 06:00:51;;;;;;;16.70;5.00;;;;;;;19.43;89.12;101327.09;5058547;28;20020;-77
2023/06/26 06:03:16;;;;;;;17.33;5.05;;;;;;;19.46;87.90;101331.34;5069304;28;20569;-75
2023/06/26 06:05:41;;;;;;;20.77;5.18;;;;;;;19.47;86.74;101333.06;5057782;28;20032;-71
2023/06/26 06:08:07;;;;;;;20.52;5.50;;;;;;;19.52;87.72;101342.50;5057252;28;20086;-71
2023/06/26 06:10:32;;;;;;;20.13;5.45;;;;;;;19.55;86.48;101341.31;5065317;28;20078;-70
2023/06/26 06:12:57;;;;;;;17.73;5.30;;;;;;;19.61;86.60;101342.56;5079747;28;20058;-72
2023/06/26 06:15:23;;;;;;;18.60;5.22;;;;;;;19.61;85.83;101340.69;5079016;28;20063;-70
2023/06/26 06:17:48;;;;;;;22.05;5.80;;;;;;;19.63;84.80;101343.25;5074515;28;20028;-70
2023/06/26 06:20:13;;;;;;;15.48;5.10;;;;;;;19.68;84.92;101340.91;5080853;28;20057;-70
2023/06/26 06:22:39;;;;;;;16.25;4.75;;;;;;;19.71;83.61;101363.25;5067395;28;20024;-70
2023/06/26 06:25:04;;;;;;;24.10;5.18;;;;;;;19.73;83.35;101360.34;5080651;28;20032;-70
2023/06/26 06:27:31;;;;;;;13.15;3.63;;;;;;;19.77;83.57;101363.63;5081799;28;20032;-71
2023/06/26 06:29:56;;;;;;;12.88;4.70;;;;;;;19.81;83.20;101359.56;5065270;28;20065;-70
2023/06/26 06:32:21;;;;;;;15.70;4.18;;;;;;;19.86;84.32;101352.63;5064772;28;20028;-70
2023/06/26 06:34:47;;;;;;;19.25;5.07;;;;;;;19.90;83.04;101345.84;5060722;28;20036;-70
2023/06/26 06:37:12;;;;;;;15.18;4.22;;;;;;;19.94;82.23;101356.41;5074546;28;20066;-70
2023/06/26 06:39:37;;;;;;;17.98;4.93;;;;;;;19.94;81.95;101362.72;5076749;28;20603;-70
2023/06/26 06:42:03;;;;;;;18.65;4.53;;;;;;;19.98;81.91;101368.72;5077189;28;20028;-70
2023/06/26 06:44:30;;;;;;;14.85;4.10;;;;;;;20.04;82.27;101373.53;5079859;28;20028;-71
2023/06/26 06:46:55;;;;;;;16.55;4.78;;;;;;;20.06;81.84;101390.63;5083128;28;20127;-71
2023/06/26 06:49:21;;;;;;;18.75;4.95;;;;;;;20.08;80.95;101385.84;5088905;28;20055;-71
2023/06/26 06:51:46;;;;;;;14.98;3.35;;;;;;;20.14;81.93;101384.34;5082523;28;20030;-71
2023/06/26 06:54:11;;;;;;;18.67;4.47;;;;;;;20.19;82.12;101382.84;5091849;28;20028;-72
2023/06/26 06:56:37;;;;;;;14.13;3.78;;;;;;;20.23;80.51;101392.38;5079864;28;20077;-72
2023/06/26 06:59:02;;;;;;;14.30;3.72;;;;;;;20.23;79.21;101395.09;5081809;28;20457;-72
2023/06/26 07:01:27;;;;;;;22.30;4.72;;;;;;;20.21;79.43;101396.31;5084421;28;20067;-71
2023/06/26 07:03:53;;;;;;;17.17;5.00;;;;;;;20.20;79.79;101406.34;5075355;28;20066;-73
2023/06/26 07:06:18;;;;;;;11.23;3.75;;;;;;;20.23;80.11;101406.03;5088981;28;20042;-74
2023/06/26 07:08:44;;;;;;;12.32;3.72;;;;;;;20.29;79.92;101409.97;5067772;28;20082;-73
2023/06/26 07:11:09;;;;;;;12.95;4.22;;;;;;;20.35;80.39;101413.94;5094389;28;20048;-73
2023/06/26 07:13:34;;;;;;;16.92;4.03;;;;;;;20.38;79.76;101422.69;5088041;28;20036;-71
2023/06/26 07:16:00;;;;;;;15.40;4.53;;;;;;;20.38;80.17;101419.06;5085868;28;20035;-71
2023/06/26 07:18:25;;;;;;;17.88;4.32;;;;;;;20.37;78.30;101422.84;5080710;28;20028;-71
2023/06/26 07:20:50;;;;;;;17.02;3.88;;;;;;;20.31;78.22;101428.94;5079766;28;20027;-72
2023/06/26 07:23:15;;;;;;;15.80;4.13;;;;;;;20.31;79.49;101440.72;5080591;28;20036;-71
2023/06/26 07:25:41;;;;;;;14.63;3.83;;;;;;;20.33;79.72;101437.81;5087777;28;20058;-71
2023/06/26 07:28:11;;;;;;;16.55;4.05;;;;;;;20.31;79.68;101437.13;5061516;28;20031;-71
2023/06/26 07:30:36;;;;;;;12.63;4.05;;;;;;;20.31;79.84;101439.84;5085617;28;20472;-71
2023/06/26 07:33:01;;;;;;;14.32;3.70;;;;;;;20.37;79.96;101451.00;5077736;28;20024;-72
2023/06/26 07:35:27;;;;;;;16.23;4.30;;;;;;;20.40;79.37;101453.38;5080621;28;20028;-71
2023/06/26 07:37:52;;;;;;;16.42;4.57;;;;;;;20.44;79.62;101456.66;5081771;28;20499;-73
2023/06/26 07:40:18;;;;;;;14.98;4.35;;;;;;;20.50;77.77;101457.84;5088899;28;20039;-75
2023/06/26 07:42:43;;;;;;;17.17;3.83;;;;;;;20.53;78.31;101466.59;5086138;28;20039;-75
2023/06/26 07:45:11;;;;;;;12.02;3.70;;;;;;;20.56;76.73;101465.44;5087083;28;20024;-75
2023/06/26 07:47:38;;;;;;;13.57;4.38;;;;;;;20.54;76.16;101464.72;5069080;28;20353;-75
2023/06/26 07:50:03;;;;;;;15.75;3.25;;;;;;;20.53;75.61;101466.59;5085796;28;20468;-75
2023/06/26 07:52:30;;;;;;;13.15;3.33;;;;;;;20.55;74.82;101475.47;5081488;28;20038;-71
2023/06/26 07:54:55;;;;;;;12.57;3.58;;;;;;;20.58;76.01;101477.03;5070709;28;20032;-80
2023/06/26 07:57:21;;;;;;;11.27;3.50;;;;;;;20.59;73.61;101482.31;5057283;28;20069;-80
2023/06/26 07:59:46;;;;;;;12.95;4.43;;;;;;;20.57;72.89;101480.78;5059529;28;20066;-80
2023/06/26 08:02:11;;;;;;;16.80;3.55;;;;;;;20.62;73.02;101488.50;5056666;28;20049;-80
2023/06/26 08:04:37;;;;;;;8.85;2.67;;;;;;;20.68;72.29;101474.22;5064918;28;20053;-81
2023/06/26 08:07:03;;;;;;;9.00;2.58;;;;;;;20.69;70.32;101486.84;5066346;28;20024;-80
2023/06/26 08:09:29;;;;;;;10.82;3.08;;;;;;;20.61;65.88;101490.34;5076958;28;20097;-80
2023/06/26 08:11:55;;;;;;;7.90;2.50;;;;;;;20.52;64.50;101500.38;5059199;28;20031;-81
2023/06/26 08:14:21;;;;;;;9.63;2.72;;;;;;;20.42;64.51;101496.91;5077265;28;20036;-80
2023/06/26 08:16:47;;;;;;;8.63;2.58;;;;;;;20.40;65.42;101497.06;5083613;28;20023;-80
2023/06/26 08:19:13;;;;;;;7.40;2.58;;;;;;;20.36;65.79;101492.09;5078396;28;20035;-80
2023/06/26 08:21:43;;;;;;;11.23;3.03;;;;;;;20.33;64.87;101492.44;5073094;28;20052;-81
2023/06/26 08:24:09;;;;;;;10.02;2.65;;;;;;;20.36;66.58;101501.13;5057888;28;20127;-80
2023/06/26 08:26:35;;;;;;;10.68;2.40;;;;;;;20.39;64.74;101494.50;5074379;28;20111;-80
2023/06/26 08:29:07;;;;;;;13.88;2.80;;;;;;;20.40;65.33;101491.59;5065638;28;20057;-80
2023/06/26 08:31:34;;;;;;;6.38;2.40;;;;;;;20.50;67.46;101496.09;5066457;28;20021;-80
2023/06/26 08:33:59;;;;;;;8.15;2.92;;;;;;;20.61;69.13;101498.53;5088992;28;20032;-80
2023/06/26 08:36:25;;;;;;;9.18;2.60;;;;;;;20.71;67.44;101495.75;5080320;28;20153;-80
2023/06/26 08:38:50;;;;;;;9.45;2.50;;;;;;;20.83;69.70;101494.41;5063177;28;20457;-79
2023/06/26 08:41:16;;;;;;;11.27;2.97;;;;;;;20.90;67.99;101500.09;5086058;28;20067;-80
2023/06/26 08:43:41;;;;;;;11.32;2.67;;;;;;;20.89;65.62;101493.75;5075732;28;20107;-65
2023/06/26 08:46:07;;;;;;;8.10;2.50;;;;;;;20.90;66.80;101494.63;5078295;28;20028;-65
2023/06/26 08:48:36;;;;;;;6.57;2.67;;;;;;;20.86;65.31;101501.44;5076783;28;20085;-65
2023/06/26 08:51:11;;;;;;;5.07;2.20;;;;;;;20.85;66.00;101510.63;5079413;28;20024;-66
2023/06/26 08:54:00;;;;;;;9.00;2.83;;;;;;;20.84;67.56;101515.25;5071005;28;20020;-66
2023/06/26 08:56:37;;;;;;;11.85;2.63;;;;;;;20.89;67.45;101521.06;5055239;28;20454;-66
2023/06/26 08:59:03;;;;;;;10.57;2.63;;;;;;;20.92;65.89;101523.50;5049824;28;20025;-65
2023/06/26 09:01:29;;;;;;;9.23;2.28;;;;;;;20.97;63.13;101522.13;5072352;28;20031;-66
2023/06/26 09:03:55;;;;;;;5.35;2.40;;;;;;;21.00;61.83;101532.75;5078401;28;20043;-66
2023/06/26 09:06:20;;;;;;;10.52;2.47;;;;;;;21.04;60.57;101531.38;5078130;28;20394;-66
2023/06/26 09:08:45;;;;;;;8.98;2.75;;;;;;;21.09;61.54;101527.13;5073323;28;20028;-65
2023/06/26 09:11:11;;;;;;;11.00;2.60;;;;;;;21.17;61.13;101530.91;5079366;28;20496;-66
2023/06/26 09:13:37;;;;;;;8.32;2.40;;;;;;;21.24;60.58;101540.16;5079531;28;20028;-62
2023/06/26 09:16:07;;;;;;;5.63;2.00;;;;;;;21.28;63.38;101533.34;5079369;28;20024;-66
2023/06/26 09:18:33;;;;;;;11.70;3.20;;;;;;;21.26;61.13;101533.53;5077992;28;20108;-66
2023/06/26 09:20:59;;;;;;;5.30;2.40;;;;;;;21.32;63.77;101537.47;5071417;28;20107;-66
2023/06/26 09:23:24;;;;;;;10.77;2.97;;;;;;;21.37;64.98;101540.56;5079059;28;20028;-65
2023/06/26 09:25:51;;;;;;;9.98;2.60;;;;;;;21.45;63.33;101542.44;5086021;28;20035;-65
2023/06/26 09:28:17;;;;;;;11.52;3.17;;;;;;;21.45;59.07;101542.44;5079623;28;20039;-66
2023/06/26 09:30:45;;;;;;;10.10;2.60;;;;;;;21.50;59.34;101552.91;5075583;28;20029;-66
2023/06/26 09:33:15;;;;;;;9.55;2.50;;;;;;;21.52;58.80;101551.72;5086120;28;20032;-66
2023/06/26 09:35:41;;;;;;;6.07;2.20;;;;;;;21.56;60.60;101555.84;5061461;28;20036;-66
2023/06/26 09:38:07;;;;;;;11.90;3.03;;;;;;;21.61;59.56;101564.41;5079006;28;20016;-71
2023/06/26 09:40:34;;;;;;;10.80;2.20;;;;;;;21.63;57.71;101562.34;5075834;28;20024;-65
2023/06/26 09:43:06;;;;;;;7.63;2.30;;;;;;;21.63;57.62;101567.81;5083140;28;20361;-66
2023/06/26 09:45:33;;;;;;;8.90;2.10;;;;;;;21.62;55.51;101570.72;5082380;28;20057;-66
2023/06/26 09:48:02;;;;;;;7.80;2.53;;;;;;;21.66;58.15;101568.53;5083103;28;20028;-63
2023/06/26 09:50:28;;;;;;;7.32;2.40;;;;;;;21.66;54.19;101579.47;5082185;28;20028;-66
2023/06/26 09:52:53;;;;;;;9.95;2.25;;;;;;;21.59;54.49;101577.38;5073328;28;20054;-67
2023/06/26 09:55:21;;;;;;;6.95;2.20;;;;;;;21.57;56.68;101576.72;5074559;28;20043;-66
2023/06/26 09:57:47;;;;;;;9.05;2.47;;;;;;;21.62;56.95;101585.25;5076893;28;20021;-66
2023/06/26 10:00:14;;;;;;;7.05;2.45;;;;;;;21.60;54.42;101568.16;5079836;28;20037;-67
2023/06/26 10:02:39;;;;;;;6.78;2.15;;;;;;;21.58;55.12;101570.22;5082227;28;20040;-65
2023/06/26 10:05:05;;;;;;;6.53;1.98;;;;;;;21.63;54.14;101588.88;5083192;28;20024;-64
2023/06/26 10:07:31;;;;;;;9.15;2.40;;;;;;;21.65;51.81;101584.06;5081360;28;20159;-66
2023/06/26 10:09:57;;;;;;;7.18;1.77;;;;;;;21.65;49.83;101595.00;5078686;28;20032;-66
2023/06/26 10:12:27;;;;;;;6.35;2.00;;;;;;;21.72;52.63;101597.94;5078484;28;20044;-67
2023/06/26 10:14:55;;;;;;;6.45;1.90;;;;;;;21.77;52.63;101592.81;5080981;28;20028;-66
2023/06/26 10:17:21;;;;;;;9.55;2.35;;;;;;;21.82;49.79;101593.19;5081810;28;20491;-65
2023/06/26 10:19:48;;;;;;;6.07;1.90;;;;;;;21.79;50.52;101590.78;5071574;28;20048;-66
2023/06/26 10:22:17;;;;;;;5.28;2.00;;;;;;;21.81;50.45;101599.66;5082804;28;20040;-66
2023/06/26 10:24:45;;;;;;;7.50;1.98;;;;;;;21.81;49.66;101596.94;5081406;28;20031;-69
2023/06/26 10:27:21;;;;;;;4.00;1.73;;;;;;;21.86;51.35;101600.03;5075521;28;20036;-66
2023/06/26 10:29:50;;;;;;;8.85;2.13;;;;;;;21.88;52.08;101597.97;5082953;28;20043;-70
2023/06/26 10:32:17;;;;;;;7.10;1.83;;;;;;;21.81;50.12;101608.72;5082906;28;20032;-71
2023/06/26 10:34:43;;;;;;;6.15;1.85;;;;;;;21.75;51.13;101592.13;5055948;28;20470;-69
2023/06/26 10:37:08;;;;;;;6.40;2.22;;;;;;;21.75;51.20;101605.81;5082480;28;20088;-69
2023/06/26 10:39:46;;;;;;;7.80;2.10;;;;;;;21.67;50.94;101605.78;5081765;28;20032;-70
2023/06/26 10:42:12;;;;;;;14.63;3.22;;;;;;;21.64;52.67;101618.78;5070316;28;20480;-66
2023/06/26 10:44:45;;;;;;;6.72;1.98;;;;;;;21.66;49.00;101609.56;5077591;28;20453;-65
2023/06/26 10:47:28;;;;;;;9.05;1.75;;;;;;;21.69;49.88;101611.97;5064347;28;20040;-70
2023/06/26 10:49:53;;;;;;;8.25;1.95;;;;;;;21.78;48.99;101627.38;5077058;28;20388;-69
2023/06/26 10:52:18;;;;;;;5.05;1.83;;;;;;;21.84;48.02;101625.84;5064193;28;20024;-71
2023/06/26 10:54:44;;;;;;;5.85;2.70;;;;;;;21.89;49.75;101615.22;5060098;28;20027;-72
2023/06/26 10:57:10;;;;;;;6.03;2.08;;;;;;;21.92;50.33;101625.84;5075177;28;20388;-70
2023/06/26 10:59:40;;;;;;;5.30;2.17;;;;;;;21.93;49.38;101619.34;5082168;28;20066;-71
2023/06/26 11:02:05;;;;;;;5.93;1.83;;;;;;;21.91;48.27;101624.16;5068791;28;20048;-68
2023/06/26 11:04:43;;;;;;;10.23;2.15;;;;;;;21.86;48.16;101632.88;5071910;28;20027;-70
2023/06/26 11:07:16;;;;;;;6.03;2.10;;;;;;;21.87;48.60;101640.03;5051537;28;20037;-70
2023/06/26 11:10:02;;;;;;;8.85;2.55;;;;;;;21.82;48.19;101624.13;5064012;28;20502;-70
2023/06/26 11:12:44;;;;;;;9.02;2.40;;;;;;;21.79;50.07;101631.81;5071466;28;20120;-64
2023/06/26 11:15:18;;;;;;;6.60;2.30;;;;;;;21.84;48.61;101634.91;5072601;28;20094;-66